Portada
METAR-TAF:

METAR-TAF

Aeropuertos :

Aeropuerto de Berlín-Tegel

Berlín, Alemania

latitud: 52-34N, longitud: 013-19E, altitud: 37 m

Observación

El informe se hizo hace 24 minutos, a las 05:50 UTC
Viento 4 kt del noroeste, variando entre oeste y norte-noreste
Temperatura 17°C
Humedad 52%
Presión 1020 hPa
Visibilidad 10 km o más
sin nubes por debajo de 1500 m y sin presencia de cumulonimbus.

METAR: EDDT 020550Z 32004KT 280V030 CAVOK 17/07 Q1020 NOSIG

Hora: 08:14 (06:14 UTC)

Pronóstico

El informe se hizo hace 1 hora y 14 minutos, a las 05:00 UTC
Pronóstico válido del 02 a las 06 UTC al 03 a las 06 UTC
Viento 7 kt del norte-noroeste
Visibilidad 10 km o más
sin nubes por debajo de 1500 m y sin presencia de cumulonimbus.
Evolucionando progresivamente
del 02 a las 18 UTC al 02 a las 21 UTC
Viento 3 kt con dirección variable

TAF: EDDT 020500Z 0206/0306 34007KT CAVOK BECMG 0218/0221 VRB03KT

Observaciones y pronósticos meteorológicos de más de 4000 aeropuertos (mensajes METAR y TAF).

Los puntos amarillos y rojos representan las estaciones disponibles.

Ponga el ratón en el punto deseado para ver el nombre de la estación.

Haga clic para ver las observaciones y los pronósticos meteorológicos.

Para cambiar el mapa : haga clic en los botones verdes con una cruz de color negro para hacer un zoom, en el botón verde con un guión para alejar o en las flechas verdes para mapas adyacentes.


METAR-TAF: